Time;durP1;ratioP1;P1;durP2;ratioP2;P2;SDS_P1;SDS_P2;PMS_P1;PMS_P2;Temp;Humidity;BMP_temperature;BMP_pressure;BME280_temperature;BME280_humidity;BME280_pressure;Samples;Min_cycle;Max_cycle;Signal;HPM_P1;HPM_P2
2022/11/05 00:16:42;;;;;;;11.38;5.63;;;11.10;99.90;;;11.41;76.19;101381.34;5116653;28;20044;-70
2022/11/05 00:16:52;;;;;;;10.40;5.07;;;11.30;99.90;;;11.59;75.76;101376.03;5116538;28;20065;-69
2022/11/05 00:19:22;;;;;;;9.32;4.70;;;11.30;99.90;;;11.61;75.51;101376.91;5116621;28;20112;-69
2022/11/05 00:27:22;;;;;;;6.35;4.75;;;11.40;99.90;;;11.48;75.04;101401.66;5116252;28;20039;-69
2022/11/05 00:29:50;;;;;;;7.72;5.43;;;11.40;99.90;;;11.44;75.02;101405.19;5116075;28;20040;-69
2022/11/05 00:32:18;;;;;;;9.50;5.00;;;11.20;99.90;;;11.41;75.36;101409.59;5098040;28;20079;-69
2022/11/05 00:34:48;;;;;;;6.53;4.70;;;11.20;99.90;;;11.34;76.07;101411.34;5116073;28;20542;-68
2022/11/05 00:37:16;;;;;;;7.13;4.95;;;11.10;99.90;;;11.24;75.86;101412.25;5116192;28;20408;-69
2022/11/05 00:39:44;;;;;;;6.32;5.10;;;11.00;99.90;;;11.27;75.93;101417.53;5097849;28;20046;-69
2022/11/05 00:45:08;;;;;;;9.57;4.72;;;11.00;99.90;;;11.29;75.96;101415.78;5067788;28;20059;-69
2022/11/05 00:50:24;;;;;;;9.48;4.93;;;11.10;99.90;;;11.35;75.71;101413.13;5115879;28;20039;-70
2022/11/05 00:52:58;;;;;;;6.22;4.95;;;11.10;99.90;;;11.29;75.59;101388.41;5115868;28;20043;-70
2022/11/05 00:55:33;;;;;;;13.82;5.07;;;11.10;99.90;;;11.28;75.59;101400.78;5115309;28;20047;-69
2022/11/05 00:58:04;;;;;;;10.07;5.40;;;11.10;99.90;;;11.37;75.30;101405.19;5115701;28;20416;-69
2022/11/05 01:00:35;;;;;;;10.65;5.20;;;11.20;99.90;;;11.53;75.22;101418.44;5115835;28;20061;-69
2022/11/05 01:03:06;;;;;;;7.70;5.25;;;11.30;99.90;;;11.55;75.12;101427.28;5115572;28;20050;-70
2022/11/05 01:05:39;;;;;;;11.60;5.70;;;11.30;99.90;;;11.48;75.06;101417.53;5115790;28;20460;-69
2022/11/05 01:08:08;;;;;;;9.68;5.40;;;11.40;99.90;;;11.40;74.70;101402.56;5115522;28;20039;-69
2022/11/05 01:10:41;;;;;;;10.82;6.05;;;11.40;99.90;;;11.54;74.44;101406.06;5115463;28;20043;-69
2022/11/05 01:13:10;;;;;;;5.60;4.75;;;11.40;99.90;;;11.55;74.60;101414.03;5115595;28;20047;-70
2022/11/05 01:15:40;;;;;;;8.35;4.97;;;11.30;99.90;;;11.49;74.59;101419.34;5115392;28;20100;-69
2022/11/05 01:18:09;;;;;;;6.22;4.57;;;11.30;99.90;;;11.43;74.85;101414.03;5097347;28;20047;-69
2022/11/05 01:20:38;;;;;;;7.18;5.20;;;11.20;99.90;;;11.31;74.57;101403.41;5097517;28;20513;-69
2022/11/05 01:23:07;;;;;;;5.63;4.37;;;11.20;99.90;;;11.09;74.48;101412.19;5116318;28;20058;-69
2022/11/05 01:25:40;;;;;;;5.97;5.00;;;10.90;99.90;;;11.09;74.93;101406.03;5116778;28;20051;-69
2022/11/05 01:28:09;;;;;;;7.35;5.05;;;10.80;99.90;;;11.13;75.04;101402.50;5115430;28;20045;-69
2022/11/05 01:30:38;;;;;;;8.98;5.03;;;10.90;99.90;;;11.19;75.32;101405.19;5097285;28;20056;-69
2022/11/05 01:33:07;;;;;;;7.47;5.32;;;10.90;99.90;;;11.24;75.08;101409.59;5115433;28;20051;-69
2022/11/05 01:35:36;;;;;;;9.10;5.50;;;11.00;99.90;;;11.26;75.22;101410.47;5115304;28;20042;-70
2022/11/05 01:38:05;;;;;;;7.50;5.05;;;11.00;99.90;;;11.28;75.52;101411.38;5115148;28;20043;-69
2022/11/05 01:40:33;;;;;;;5.90;4.50;;;11.00;99.90;;;11.30;75.78;101412.25;5114808;28;20047;-69
2022/11/05 01:43:02;;;;;;;9.93;5.25;;;11.00;99.90;;;11.28;76.10;101421.97;5114831;28;20047;-69
2022/11/05 01:45:30;;;;;;;6.22;4.90;;;11.00;99.90;;;10.91;76.40;101435.97;5115264;28;20062;-70
2022/11/05 01:48:05;;;;;;;7.13;4.82;;;10.80;99.90;;;11.05;77.08;101447.50;5114846;28;20047;-69
2022/11/05 01:50:40;;;;;;;6.93;5.00;;;10.70;99.90;;;11.01;78.18;101436.91;5114703;28;20039;-69
2022/11/05 01:53:18;;;;;;;6.97;4.70;;;10.70;99.90;;;10.89;80.42;101432.44;5114574;28;20058;-69
2022/11/05 01:55:54;;;;;;;6.85;4.80;;;10.60;99.90;;;10.94;81.37;101441.28;5114605;28;20040;-69
2022/11/05 01:58:29;;;;;;;7.93;4.40;;;10.60;99.90;;;11.21;81.38;101437.81;5114915;28;20055;-70
2022/11/05 02:00:57;;;;;;;6.10;4.97;;;10.80;99.90;;;11.36;81.27;101428.13;5096301;28;20424;-69
2022/11/05 02:03:26;;;;;;;5.15;4.65;;;11.00;99.90;;;11.34;81.06;101403.41;5114376;28;20453;-70
2022/11/05 02:05:57;;;;;;;6.55;4.32;;;11.10;99.90;;;11.19;80.28;101423.72;5113802;28;20489;-69
2022/11/05 02:08:45;;;;;;;6.13;5.53;;;11.00;99.90;;;11.12;81.59;101425.44;5096007;28;20044;-69
2022/11/05 02:11:17;;;;;;;6.32;4.45;;;10.80;99.90;;;11.44;80.39;101426.38;5114312;28;20040;-69
2022/11/05 02:13:46;;;;;;;7.00;4.22;;;11.10;99.90;;;11.61;79.49;101427.25;5114220;28;20472;-69
2022/11/05 02:16:22;;;;;;;7.75;4.55;;;11.30;99.90;;;11.69;78.65;101414.06;5114036;28;20458;-70
2022/11/05 02:18:59;;;;;;;6.47;4.20;;;11.40;99.90;;;11.70;77.76;101414.06;5114229;28;20065;-69
2022/11/05 02:21:53;;;;;;;6.10;4.38;;;11.50;99.90;;;11.71;77.63;101426.41;5114125;28;20036;-69
2022/11/05 02:25:06;;;;;;;5.28;4.40;;;11.50;99.90;;;11.60;77.64;101419.31;5113515;28;20138;-69
2022/11/05 02:28:05;;;;;;;6.25;4.65;;;11.40;99.90;;;11.57;77.51;101422.88;5113933;28;20043;-70
2022/11/05 02:30:45;;;;;;;5.45;4.95;;;11.30;99.90;;;11.44;77.89;101422.88;5113878;28;20412;-70
2022/11/05 02:33:41;;;;;;;6.95;4.65;;;11.20;99.90;;;11.43;78.39;101413.13;5113903;28;20127;-69
2022/11/05 02:36:28;;;;;;;6.40;5.45;;;11.20;99.90;;;11.39;78.34;101425.50;5113883;28;20043;-70
2022/11/05 02:39:10;;;;;;;5.05;4.65;;;11.20;99.90;;;11.47;78.55;101428.16;5113714;28;20052;-69
2022/11/05 02:41:48;;;;;;;6.93;4.75;;;11.20;99.90;;;11.60;78.45;101427.28;5113790;28;20415;-69
2022/11/05 02:44:26;;;;;;;5.50;4.25;;;11.30;99.90;;;11.68;78.43;101422.91;5113776;28;20058;-70
2022/11/05 02:47:03;;;;;;;8.23;4.45;;;11.40;99.90;;;11.74;78.44;101421.13;5113534;28;20044;-69
2022/11/05 02:49:41;;;;;;;7.72;4.90;;;11.50;99.90;;;11.68;78.65;101399.03;5113574;28;20047;-70
2022/11/05 02:52:16;;;;;;;6.90;4.80;;;11.50;99.90;;;11.84;78.55;101418.47;5113547;28;20048;-69
2022/11/05 02:54:54;;;;;;;5.47;4.93;;;11.60;99.90;;;11.88;78.52;101430.84;5113497;28;20071;-69
2022/11/05 02:57:23;;;;;;;7.63;4.53;;;11.60;99.90;;;11.93;78.44;101426.41;5113494;28;20048;-69
2022/11/05 03:00:01;;;;;;;5.80;5.28;;;11.60;99.90;;;11.95;78.36;101427.28;5113328;28;20447;-69
2022/11/05 03:02:31;;;;;;;8.57;4.50;;;11.70;99.90;;;11.94;78.42;101428.19;5113809;28;20051;-69
2022/11/05 03:05:00;;;;;;;12.57;4.93;;;11.60;99.90;;;12.00;78.45;101421.09;5113798;28;20493;-69
2022/11/05 03:07:43;;;;;;;11.00;5.43;;;11.70;99.90;;;11.98;78.62;101417.56;5113214;28;20040;-70
2022/11/05 03:10:41;;;;;;;7.43;4.57;;;11.70;99.90;;;12.02;78.76;101421.13;5113589;28;20052;-69
2022/11/05 03:13:17;;;;;;;8.35;4.93;;;11.70;99.90;;;12.04;79.04;101416.69;5113242;28;20411;-69
2022/11/05 03:15:56;;;;;;;11.88;4.55;;;11.70;99.90;;;12.07;78.66;101414.03;5113284;28;20051;-69
2022/11/05 03:18:34;;;;;;;8.05;5.00;;;11.80;99.90;;;12.14;78.68;101415.75;5113134;28;20051;-70
2022/11/05 03:21:09;;;;;;;7.05;4.60;;;11.80;99.90;;;12.12;78.04;101417.53;5113188;28;20039;-70
2022/11/05 03:23:44;;;;;;;7.57;4.50;;;11.80;99.90;;;12.13;78.07;101420.22;5113149;28;20526;-70
2022/11/05 03:26:18;;;;;;;5.22;4.30;;;11.80;99.90;;;12.05;78.05;101416.69;5113521;28;20040;-69
2022/11/05 03:28:52;;;;;;;8.75;4.57;;;11.80;99.90;;;12.12;77.71;101421.06;5113132;28;20047;-70
2022/11/05 03:31:22;;;;;;;7.05;4.35;;;11.80;99.90;;;12.10;77.63;101420.19;5113060;28;20035;-70
2022/11/05 03:33:55;;;;;;;8.05;4.22;;;11.80;99.90;;;12.11;77.55;101415.78;5113115;28;20039;-69
2022/11/05 03:36:28;;;;;;;6.18;4.22;;;11.80;99.90;;;11.91;77.23;101377.81;5113190;28;20040;-69
2022/11/05 03:38:59;;;;;;;6.28;4.03;;;11.80;99.90;;;12.17;76.75;101413.13;5113041;28;20050;-69
2022/11/05 03:41:29;;;;;;;5.15;3.85;;;11.80;99.90;;;12.17;76.56;101410.47;5112984;28;20046;-69
2022/11/05 03:44:01;;;;;;;5.13;4.22;;;11.90;99.90;;;12.20;76.26;101424.59;5113182;28;20520;-69
2022/11/05 03:46:35;;;;;;;4.45;4.05;;;11.90;99.90;;;12.22;76.01;101425.47;5112960;28;20039;-70
2022/11/05 03:49:08;;;;;;;3.90;3.60;;;11.90;99.90;;;12.18;75.95;101421.06;5112975;28;20380;-69
2022/11/05 03:51:42;;;;;;;6.00;4.00;;;11.90;99.90;;;12.10;75.83;101403.44;5112815;28;20051;-69
2022/11/05 03:54:11;;;;;;;4.28;3.70;;;11.90;99.90;;;12.16;75.52;101412.22;5112851;28;20047;-70
2022/11/05 03:56:46;;;;;;;4.40;3.50;;;11.90;99.90;;;12.20;75.57;101419.28;5112819;28;20085;-70
2022/11/05 03:59:15;;;;;;;4.57;4.13;;;11.90;99.90;;;12.19;75.34;101417.53;5112976;28;20492;-70
2022/11/05 04:01:44;;;;;;;4.18;3.85;;;11.90;99.90;;;12.19;75.47;101424.59;5112771;28;20489;-69
2022/11/05 04:04:13;;;;;;;7.72;4.13;;;11.90;99.90;;;12.13;75.24;101411.34;5112759;28;20058;-69
2022/11/05 04:14:59;;;;;;;5.70;4.68;;;11.80;99.90;;;12.05;75.44;101422.00;5112537;28;20051;-69
2022/11/05 04:17:26;;;;;;;6.70;4.88;;;11.80;99.90;;;11.90;75.52;101411.41;5094624;28;20121;-70
2022/11/05 04:25:27;;;;;;;6.85;4.78;;;11.70;99.90;;;12.00;75.39;101430.84;5112653;28;20063;-70
2022/11/05 04:28:00;;;;;;;6.15;5.07;;;11.70;99.90;;;11.98;75.28;101435.25;5112959;28;20051;-70
2022/11/05 04:30:27;;;;;;;6.78;5.43;;;11.70;99.90;;;12.01;75.21;101437.88;5115016;28;20048;-70
2022/11/05 04:33:02;;;;;;;8.55;5.10;;;11.70;99.90;;;12.00;75.28;101444.09;5116204;28;20047;-70
2022/11/05 04:35:34;;;;;;;9.55;5.13;;;11.70;99.90;;;11.97;75.29;101434.38;5116190;28;20047;-70
2022/11/05 04:38:03;;;;;;;9.13;5.30;;;11.70;99.90;;;11.89;75.22;101432.59;5116093;28;20074;-70
2022/11/05 04:40:32;;;;;;;6.97;5.20;;;11.60;99.90;;;11.89;75.53;101443.19;5116303;28;20112;-69
2022/11/05 04:43:01;;;;;;;7.18;5.40;;;11.60;99.90;;;11.86;75.67;101440.56;5116142;28;20051;-70
2022/11/05 04:45:33;;;;;;;7.47;4.93;;;11.60;99.90;;;11.88;75.63;101441.44;5115982;28;20039;-69
2022/11/05 04:48:01;;;;;;;7.07;4.82;;;11.60;99.90;;;11.43;75.39;101378.69;5115878;28;20044;-69
2022/11/05 04:50:32;;;;;;;8.32;4.78;;;11.60;99.90;;;11.81;75.37;101450.28;5097476;28;20040;-70
2022/11/05 04:53:01;;;;;;;6.22;5.63;;;11.50;99.90;;;11.77;75.12;101444.09;5116174;28;20135;-70
2022/11/05 04:55:29;;;;;;;8.73;5.57;;;11.50;99.90;;;11.75;75.21;101454.69;5115777;28;20444;-69
2022/11/05 04:57:57;;;;;;;7.28;5.28;;;11.50;99.90;;;11.72;75.19;101448.50;5115809;28;20126;-70
2022/11/05 05:00:26;;;;;;;5.38;4.82;;;11.50;99.90;;;11.50;75.31;101421.09;5115999;28;20073;-69
2022/11/05 05:02:54;;;;;;;7.40;5.38;;;11.40;99.90;;;11.73;75.57;101455.56;5115626;28;20039;-69
2022/11/05 05:05:22;;;;;;;7.43;5.28;;;11.40;99.90;;;11.69;75.63;101453.81;5115808;28;20043;-70
2022/11/05 05:07:52;;;;;;;7.18;5.85;;;11.40;99.90;;;11.70;76.08;101452.94;5097421;28;20042;-69
2022/11/05 05:10:20;;;;;;;8.23;5.20;;;11.40;99.90;;;11.67;76.37;101458.25;5116046;28;20040;-70
2022/11/05 05:12:49;;;;;;;10.40;5.65;;;11.40;99.90;;;11.73;76.58;101451.16;5116137;28;20061;-69
2022/11/05 05:15:17;;;;;;;6.38;5.25;;;11.40;99.90;;;11.75;76.84;101457.34;5116242;28;20065;-69
2022/11/05 05:17:50;;;;;;;7.50;5.30;;;11.50;99.90;;;11.78;77.06;101460.00;5116761;28;20040;-70
2022/11/05 05:23:05;;;;;;;7.82;6.03;;;11.50;99.90;;;11.79;77.71;101445.84;5084110;28;20069;-70
2022/11/05 05:25:33;;;;;;;8.70;6.45;;;11.50;99.90;;;11.76;78.00;101450.28;5115285;28;20049;-70
2022/11/05 05:28:01;;;;;;;9.30;7.13;;;11.50;99.90;;;11.76;78.48;101455.59;5115209;28;20047;-70
2022/11/05 05:30:30;;;;;;;8.18;7.22;;;11.50;99.90;;;11.79;78.46;101453.81;5115723;28;20051;-70
2022/11/05 05:33:02;;;;;;;10.38;6.45;;;11.50;99.90;;;11.55;78.86;101405.19;5115029;28;20039;-69
2022/11/05 05:35:31;;;;;;;9.27;6.63;;;11.50;99.90;;;11.75;78.98;101449.38;5115123;28;20055;-70
2022/11/05 05:37:59;;;;;;;10.57;7.32;;;11.50;99.90;;;11.71;79.27;101442.31;5114950;28;20426;-70
2022/11/05 05:40:29;;;;;;;8.95;6.97;;;11.40;99.90;;;11.72;79.77;101452.06;5096531;28;20054;-69
2022/11/05 05:42:57;;;;;;;10.93;7.88;;;11.40;99.90;;;11.74;79.79;101446.75;5114779;28;20043;-70
2022/11/05 05:45:25;;;;;;;10.35;7.38;;;11.40;99.90;;;11.77;79.63;101447.63;5114763;28;20554;-69
2022/11/05 05:47:55;;;;;;;8.82;7.10;;;11.50;99.90;;;11.76;79.60;101453.81;5114648;28;20047;-70
2022/11/05 05:50:23;;;;;;;13.23;7.43;;;11.40;99.90;;;11.74;79.65;101450.28;5114719;28;20039;-69
2022/11/05 05:52:52;;;;;;;11.40;7.75;;;11.40;99.90;;;11.75;80.06;101449.38;5114593;28;20875;-70
2022/11/05 05:55:20;;;;;;;12.90;7.53;;;11.40;99.90;;;11.59;79.99;101423.72;5114605;28;20481;-69
2022/11/05 05:57:50;;;;;;;11.77;7.18;;;11.50;99.90;;;11.78;80.06;101461.78;5114557;28;20492;-69
2022/11/05 06:00:18;;;;;;;12.32;7.80;;;11.50;99.90;;;11.76;80.02;101461.78;5114530;28;20047;-69
2022/11/05 06:02:46;;;;;;;11.50;7.85;;;11.50;99.90;;;11.73;79.86;101464.41;5114515;28;20039;-70
2022/11/05 06:05:15;;;;;;;11.82;7.60;;;11.40;99.90;;;11.63;79.96;101465.25;5096188;28;20043;-69
2022/11/05 06:07:43;;;;;;;12.02;8.50;;;11.40;99.90;;;11.59;80.03;101460.81;5114283;28;20055;-69
2022/11/05 06:10:12;;;;;;;13.95;8.55;;;11.40;99.90;;;11.55;80.11;101461.72;5114418;28;20065;-69
2022/11/05 06:12:40;;;;;;;14.23;8.80;;;11.30;99.90;;;11.53;80.12;101460.84;5114267;28;20476;-69
2022/11/05 06:15:10;;;;;;;12.88;8.13;;;11.30;99.90;;;11.51;80.33;101467.00;5114623;28;20062;-69
2022/11/05 06:17:39;;;;;;;16.48;8.10;;;11.20;99.90;;;11.48;80.53;101469.63;5114216;28;20043;-69
2022/11/05 06:20:08;;;;;;;12.13;8.50;;;11.20;99.90;;;11.46;80.50;101471.41;5096039;28;20043;-68
2022/11/05 06:22:37;;;;;;;11.60;8.23;;;11.20;99.90;;;11.44;80.49;101479.34;5114646;28;20035;-69
2022/11/05 06:25:07;;;;;;;14.50;8.85;;;11.20;99.90;;;11.13;80.91;101452.81;5114060;28;20680;-69
2022/11/05 06:27:36;;;;;;;12.90;8.60;;;11.10;99.90;;;11.22;80.92;101477.56;5114175;28;20054;-69
2022/11/05 06:30:05;;;;;;;13.18;8.98;;;11.00;99.90;;;11.13;81.17;101471.34;5113849;28;20408;-70
2022/11/05 06:32:35;;;;;;;13.27;9.07;;;10.90;99.90;;;11.15;81.44;101480.19;5113814;28;20055;-69
2022/11/05 06:35:03;;;;;;;12.90;9.38;;;10.90;99.90;;;11.22;81.51;101477.56;5113928;28;20040;-70
2022/11/05 06:37:33;;;;;;;12.90;8.82;;;11.00;99.90;;;11.21;81.78;101474.88;5113962;28;20043;-69
2022/11/05 06:40:01;;;;;;;13.10;9.82;;;11.00;99.90;;;11.22;82.02;101474.00;5113927;28;20124;-69
2022/11/05 06:42:29;;;;;;;15.20;9.18;;;11.00;99.90;;;11.25;82.12;101477.56;5113808;28;20524;-69
2022/11/05 06:44:57;;;;;;;16.05;9.48;;;11.00;99.90;;;11.23;82.14;101474.00;5113643;28;20070;-70
2022/11/05 06:47:26;;;;;;;14.48;9.57;;;11.00;99.90;;;11.25;82.40;101481.94;5113624;28;20396;-69
2022/11/05 06:49:56;;;;;;;15.82;9.95;;;11.00;99.90;;;11.24;82.55;101475.78;5113678;28;20048;-69
2022/11/05 06:52:26;;;;;;;14.90;9.77;;;11.00;99.90;;;11.29;82.70;101489.91;5113175;28;20039;-69
2022/11/05 06:54:54;;;;;;;11.53;9.30;;;11.00;99.90;;;11.33;82.58;101481.09;5113961;28;20136;-69
2022/11/05 06:57:22;;;;;;;15.15;9.32;;;11.00;99.90;;;11.36;82.87;101488.19;5095125;28;20678;-69
2022/11/05 06:59:50;;;;;;;13.57;9.45;;;11.10;99.90;;;11.43;83.06;101485.56;5113328;28;20036;-69
2022/11/05 07:02:25;;;;;;;13.05;9.30;;;11.20;99.90;;;11.54;83.17;101491.75;5113641;28;20515;-69
2022/11/05 07:04:55;;;;;;;13.07;9.50;;;11.30;99.90;;;11.64;82.75;101492.63;5113351;28;20047;-68
2022/11/05 07:07:23;;;;;;;15.70;9.48;;;11.40;99.90;;;11.86;82.33;101491.81;5113282;28;20048;-69
2022/11/05 07:09:52;;;;;;;13.18;9.43;;;11.50;99.90;;;12.01;81.66;101505.06;5113133;28;20051;-69
2022/11/05 07:12:20;;;;;;;11.00;9.38;;;11.70;99.90;;;12.15;81.34;101490.03;5113136;28;20122;-69
2022/11/05 07:14:49;;;;;;;16.63;9.25;;;11.90;99.90;;;12.41;80.49;101500.59;5113160;28;20050;-69
2022/11/05 07:17:18;;;;;;;13.05;9.57;;;12.10;99.90;;;12.63;79.84;101516.50;5113149;28;20485;-70
2022/11/05 07:19:46;;;;;;;11.55;9.15;;;12.30;99.90;;;12.67;78.77;101480.19;5113384;28;20437;-70
2022/11/05 07:22:16;;;;;;;14.07;9.20;;;12.50;99.90;;;12.92;78.03;101500.47;5113222;28;20125;-70
2022/11/05 07:24:46;;;;;;;16.48;8.90;;;12.60;99.90;;;13.17;77.55;101504.81;5112910;28;20404;-69
2022/11/05 07:27:14;;;;;;;15.87;8.37;;;12.90;99.90;;;13.31;76.66;101510.94;5113115;28;20400;-70
2022/11/05 07:29:42;;;;;;;11.10;8.07;;;13.00;99.90;;;13.39;76.24;101518.88;5113295;28;20311;-69
2022/11/05 07:32:11;;;;;;;12.40;8.60;;;13.10;99.90;;;13.46;76.31;101517.94;5112969;28;20047;-69
2022/11/05 07:34:39;;;;;;;11.18;8.07;;;13.20;99.90;;;13.63;76.46;101509.88;5112946;28;20388;-69
2022/11/05 07:37:07;;;;;;;11.35;7.53;;;13.30;99.90;;;13.23;76.33;101405.59;5113198;28;20044;-69
2022/11/05 07:39:37;;;;;;;11.75;7.47;;;13.50;99.90;;;13.91;75.99;101503.44;5112902;28;20039;-70
2022/11/05 07:42:05;;;;;;;13.90;8.00;;;13.60;99.90;;;13.97;75.21;101509.63;5112944;28;20039;-69
2022/11/05 07:44:34;;;;;;;11.00;8.25;;;13.70;99.90;;;13.97;75.00;101504.28;5094665;28;20096;-69
2022/11/05 07:47:02;;;;;;;10.55;7.80;;;13.70;99.90;;;13.94;75.06;101514.94;5113224;28;20062;-69
2022/11/05 07:49:31;;;;;;;13.38;7.85;;;13.70;99.90;;;13.87;75.37;101513.25;5094451;28;20100;-69
2022/11/05 07:51:59;;;;;;;15.02;7.25;;;13.60;99.90;;;13.82;75.06;101503.53;5112766;28;20035;-68
2022/11/05 07:54:27;;;;;;;8.98;7.22;;;13.60;99.90;;;13.78;75.58;101509.75;5113303;28;20043;-69
2022/11/05 07:56:57;;;;;;;9.75;7.05;;;13.50;99.90;;;13.74;75.55;101513.34;5112803;28;20468;-70
2022/11/05 07:59:25;;;;;;;12.02;7.07;;;13.50;99.90;;;13.69;75.68;101501.81;5112948;28;20051;-74
2022/11/05 08:01:54;;;;;;;10.40;6.53;;;13.40;99.90;;;13.61;76.10;101509.84;5112754;28;20493;-73
2022/11/05 08:04:22;;;;;;;9.65;6.43;;;13.30;99.90;;;13.45;76.75;101505.56;5112947;28;20523;-73
2022/11/05 08:06:50;;;;;;;8.57;6.47;;;13.20;99.90;;;13.42;77.14;101505.56;5116578;28;20523;-73
2022/11/05 08:09:19;;;;;;;10.07;6.72;;;13.10;99.90;;;13.37;77.21;101516.22;5116600;28;20488;-74
2022/11/05 08:11:47;;;;;;;9.70;6.40;;;13.10;99.90;;;13.11;77.73;101480.94;5116764;28;20040;-75
2022/11/05 08:14:21;;;;;;;11.80;6.68;;;13.00;99.90;;;13.27;77.84;101506.53;5116647;28;20412;-74
2022/11/05 08:16:49;;;;;;;9.38;6.18;;;12.90;99.90;;;13.23;77.86;101515.41;5098167;28;20062;-69
2022/11/05 08:19:17;;;;;;;9.30;6.45;;;12.90;99.90;;;13.13;78.04;101511.03;5116291;28;20101;-74
2022/11/05 08:21:46;;;;;;;11.88;6.68;;;12.80;99.90;;;13.10;78.41;101515.47;5116500;28;20153;-74
2022/11/05 08:24:14;;;;;;;10.18;7.15;;;12.80;99.90;;;13.03;78.23;101509.28;5116513;28;20047;-74
2022/11/05 08:26:42;;;;;;;12.15;6.25;;;12.70;99.90;;;13.02;78.37;101510.16;5116597;28;20036;-78
2022/11/05 08:29:11;;;;;;;10.43;6.68;;;12.70;99.90;;;12.95;78.18;101503.09;5116526;28;20047;-82
2022/11/05 08:31:40;;;;;;;8.40;7.20;;;12.70;99.90;;;13.04;78.71;101508.41;5116079;28;20050;-73
2022/11/05 08:34:08;;;;;;;7.97;6.45;;;12.70;99.90;;;13.20;79.30;101499.47;5116093;28;20061;-71
2022/11/05 08:36:39;;;;;;;9.25;6.03;;;12.90;99.90;;;13.24;78.81;101503.88;5116029;28;20039;-72
2022/11/05 08:39:08;;;;;;;12.07;6.10;;;13.00;99.90;;;13.30;78.64;101508.28;5116187;28;20040;-72
2022/11/05 08:41:44;;;;;;;12.50;6.75;;;13.00;99.90;;;13.31;78.85;101513.59;5116085;28;20050;-78
2022/11/05 08:44:12;;;;;;;8.55;5.82;;;13.00;99.90;;;13.31;79.16;101515.38;5116052;28;20044;-76
2022/11/05 08:46:42;;;;;;;8.75;6.03;;;13.00;99.90;;;13.35;79.18;101517.13;5116019;28;20039;-74
2022/11/05 08:49:10;;;;;;;11.10;6.15;;;13.00;99.90;;;13.41;79.17;101520.59;5115892;28;20039;-76
2022/11/05 08:51:39;;;;;;;9.05;5.53;;;13.10;99.90;;;13.44;79.19;101522.38;5116103;28;20397;-74
2022/11/05 08:54:07;;;;;;;7.78;6.30;;;13.10;99.90;;;13.49;78.86;101518.78;5116285;28;20043;-77
2022/11/05 08:56:35;;;;;;;9.85;6.30;;;13.20;99.90;;;13.48;78.71;101517.03;5115873;28;20408;-74
2022/11/05 08:59:04;;;;;;;10.13;5.97;;;13.20;99.90;;;13.46;78.62;101521.47;5115988;28;20116;-73
2022/11/05 09:01:33;;;;;;;9.93;6.53;;;13.10;99.90;;;13.47;78.35;101527.69;5097816;28;20497;-74
2022/11/05 09:04:03;;;;;;;9.75;6.53;;;13.20;99.90;;;13.41;78.68;101522.41;5116418;28;20040;-79
2022/11/05 09:06:32;;;;;;;14.13;6.47;;;13.10;99.90;;;13.32;78.48;101512.69;5117484;28;20047;-76
2022/11/05 09:09:00;;;;;;;14.05;6.32;;;13.10;99.90;;;13.36;78.66;101521.53;5118265;28;20040;-75
2022/11/05 09:11:28;;;;;;;14.07;6.32;;;13.10;99.90;;;13.39;78.84;101525.03;5117518;28;20039;-75
2022/11/05 09:14:17;;;;;;;10.77;6.25;;;13.00;99.90;;;13.38;78.71;101522.41;5118283;28;20550;-75
2022/11/05 09:16:45;;;;;;;10.82;6.22;;;13.00;99.90;;;13.37;79.03;101533.94;5116033;28;20501;-70
2022/11/05 09:19:15;;;;;;;14.95;6.05;;;13.00;99.90;;;13.38;79.16;101527.72;5097627;28;20043;-70
2022/11/05 09:21:43;;;;;;;9.70;6.13;;;13.10;99.90;;;13.40;79.03;101532.16;5115248;28;20069;-75
2022/11/05 09:24:11;;;;;;;8.40;5.95;;;13.10;99.90;;;13.42;78.73;101537.44;5115013;28;20044;-68
2022/11/05 09:26:39;;;;;;;8.05;5.70;;;13.10;99.90;;;13.45;78.39;101530.34;5115229;28;20036;-68
2022/11/05 09:29:08;;;;;;;10.85;5.85;;;13.10;99.90;;;13.41;78.13;101541.88;5115230;28;20194;-74
2022/11/05 09:31:42;;;;;;;8.10;6.28;;;13.10;99.90;;;13.46;78.15;101536.53;5115279;28;20049;-73
2022/11/05 09:34:10;;;;;;;11.13;5.60;;;13.20;99.90;;;13.49;77.79;101537.41;5114943;28;20048;-70
2022/11/05 09:36:40;;;;;;;9.32;6.00;;;13.20;99.90;;;13.55;77.84;101537.38;5114928;28;20050;-70
2022/11/05 09:39:11;;;;;;;9.98;5.22;;;13.20;99.90;;;13.55;77.27;101537.38;5115108;28;20417;-68
2022/11/05 09:41:42;;;;;;;13.27;5.80;;;13.30;99.90;;;13.52;76.52;101540.06;5114965;28;20047;-71
2022/11/05 09:44:14;;;;;;;12.30;5.85;;;13.20;99.90;;;13.55;76.46;101536.47;5114848;28;20386;-70
2022/11/05 09:46:49;;;;;;;9.05;6.25;;;13.20;99.90;;;13.55;76.36;101537.38;5114706;28;20053;-69
2022/11/05 09:49:26;;;;;;;11.32;5.95;;;13.30;99.90;;;13.53;76.43;101517.00;5114827;28;20412;-68
2022/11/05 09:51:58;;;;;;;7.07;6.35;;;13.30;99.90;;;13.61;76.46;101528.47;5114779;28;20048;-81
2022/11/05 09:54:32;;;;;;;9.10;6.43;;;13.30;99.90;;;13.69;76.96;101539.94;5114810;28;20039;-68
2022/11/05 09:57:02;;;;;;;12.88;6.97;;;13.40;99.90;;;13.74;77.38;101523.97;5114600;28;20078;-68
2022/11/05 09:59:36;;;;;;;10.00;6.25;;;13.40;99.90;;;13.71;76.59;101531.94;5115139;28;20131;-69
2022/11/05 10:02:15;;;;;;;10.23;6.95;;;13.40;99.90;;;13.67;76.58;101532.84;5096303;28;20052;-69
2022/11/05 10:04:47;;;;;;;14.32;6.82;;;13.40;99.90;;;13.54;76.56;101529.41;5114454;28;20489;-66
2022/11/05 10:07:22;;;;;;;9.40;7.25;;;13.30;99.90;;;13.64;77.22;101532.91;5114454;28;20074;-68
2022/11/05 10:09:55;;;;;;;11.02;6.72;;;13.30;99.90;;;13.64;77.07;101535.56;5114556;28;20055;-72
2022/11/05 10:12:32;;;;;;;11.25;6.35;;;13.30;99.90;;;13.46;77.21;101509.97;5114519;28;20051;-73
2022/11/05 10:15:11;;;;;;;9.23;7.05;;;13.30;99.90;;;13.65;77.34;101534.66;5114503;28;20043;-71
2022/11/05 10:17:46;;;;;;;9.63;6.87;;;13.30;99.90;;;13.54;77.12;101524.97;5114323;28;20137;-69
2022/11/05 10:20:22;;;;;;;10.43;6.32;;;13.30;99.90;;;13.69;77.08;101516.00;5114077;28;20058;-72
2022/11/05 10:22:56;;;;;;;11.18;6.13;;;13.40;99.90;;;13.97;77.13;101525.56;5114664;28;20059;-72
2022/11/05 10:25:31;;;;;;;11.50;7.15;;;13.60;99.90;;;14.38;77.09;101528.78;5114129;28;20052;-71
2022/11/05 10:28:00;;;;;;;10.45;6.38;;;14.00;99.90;;;14.72;75.27;101539.09;5113394;28;20856;-67
2022/11/05 10:30:29;;;;;;;9.20;6.00;;;14.40;99.90;;;15.01;74.36;101531.66;5113746;28;20040;-68
2022/11/05 10:33:01;;;;;;;9.27;6.13;;;14.70;99.90;;;15.24;73.04;101538.47;5113721;28;20051;-71
2022/11/05 10:35:33;;;;;;;8.50;5.60;;;15.00;99.90;;;15.29;70.71;101543.75;5113945;28;20064;-68
2022/11/05 10:38:03;;;;;;;11.98;6.13;;;15.10;99.90;;;15.51;70.95;101529.25;5113807;28;20047;-68
2022/11/05 10:40:49;;;;;;;9.25;5.63;;;15.30;99.90;;;15.63;70.01;101545.09;5113711;28;20043;-68
2022/11/05 10:43:24;;;;;;;9.73;5.55;;;15.40;99.90;;;15.73;68.22;101540.50;5113721;28;20051;-67
2022/11/05 10:45:59;;;;;;;7.72;5.20;;;15.50;99.90;;;15.81;67.88;101525.25;5113658;28;20054;-68
2022/11/05 10:48:49;;;;;;;10.65;5.00;;;15.60;99.90;;;15.78;67.78;101517.28;5095658;28;20412;-70
2022/11/05 10:51:18;;;;;;;11.70;5.10;;;15.50;99.90;;;15.54;67.22;101523.91;5113689;28;20043;-70
2022/11/05 10:53:54;;;;;;;7.93;4.95;;;15.30;99.90;;;15.24;67.46;101518.94;5113570;28;20054;-70
2022/11/05 10:56:33;;;;;;;10.18;5.03;;;15.10;99.90;;;15.24;68.00;101529.59;5113624;28;20127;-69
2022/11/05 10:59:02;;;;;;;8.38;5.65;;;15.00;99.90;;;15.09;68.16;101540.44;5095303;28;20613;-68
2022/11/05 11:01:38;;;;;;;7.68;5.15;;;14.80;99.90;;;14.99;68.97;101545.00;5113315;28;20055;-68
2022/11/05 11:04:16;;;;;;;8.68;5.28;;;14.70;99.90;;;14.85;69.35;101530.94;5113440;28;20052;-68
2022/11/05 11:06:50;;;;;;;7.82;5.30;;;14.60;99.90;;;14.85;69.18;101546.03;5095297;28;20413;-68
2022/11/05 11:09:24;;;;;;;8.20;5.38;;;14.50;99.90;;;14.71;69.54;101537.34;5113506;28;20039;-69